Time;durP1;ratioP1;P1;durP2;ratioP2;P2;SDS_P1;SDS_P2;PMS_P1;PMS_P2;Temp;Humidity;BMP_temperature;BMP_pressure;BME280_temperature;BME280_humidity;BME280_pressure;Samples;Min_cycle;Max_cycle;Signal;HPM_P1;HPM_P2
2021/05/21 00:00:40;;;;;;;0.30;0.20;;;;;;;14.33;74.90;99896.09;5032925;28;20459;-50
2021/05/21 00:03:07;;;;;;;0.30;0.20;;;;;;;14.37;74.33;99889.66;5032698;28;20537;-50
2021/05/21 00:05:34;;;;;;;0.30;0.20;;;;;;;14.42;74.18;99891.16;5032557;28;20448;-50
2021/05/21 00:08:01;;;;;;;0.30;0.20;;;;;;;14.41;74.76;99891.25;5032946;28;20483;-49
2021/05/21 00:10:28;;;;;;;0.30;0.20;;;;;;;14.31;74.97;99884.63;5032807;28;20451;-50
2021/05/21 00:12:54;;;;;;;0.30;0.20;;;;;;;14.38;74.94;99884.22;5019214;28;20455;-50
2021/05/21 00:15:21;;;;;;;0.30;0.20;;;;;;;14.49;74.29;99881.91;5032453;28;20459;-50
2021/05/21 00:17:48;;;;;;;0.30;0.20;;;;;;;14.40;74.34;99893.06;5032520;28;20454;-50
2021/05/21 00:20:15;;;;;;;0.30;0.20;;;;;;;14.46;73.81;99883.88;5032662;28;20505;-49
2021/05/21 00:22:42;;;;;;;0.30;0.20;;;;;;;14.40;73.63;99879.69;5032294;28;20490;-50
2021/05/21 00:25:09;;;;;;;0.30;0.20;;;;;;;14.43;74.15;99878.66;5032673;28;20526;-50
2021/05/21 00:27:35;;;;;;;0.30;0.20;;;;;;;14.38;74.42;99860.16;5001711;28;20467;-49
2021/05/21 00:30:04;;;;;;;0.30;0.20;;;;;;;14.46;74.87;99855.31;5032510;28;20447;-50
2021/05/21 00:32:31;;;;;;;0.40;0.30;;;;;;;14.60;73.78;99853.75;5031931;28;20447;-50
2021/05/21 00:34:58;;;;;;;0.30;0.20;;;;;;;14.41;73.43;99841.31;5015171;28;20479;-50
2021/05/21 00:37:24;;;;;;;0.40;0.40;;;;;;;14.44;72.65;99838.50;5030481;28;20855;-50
2021/05/21 00:39:51;;;;;;;0.40;0.30;;;;;;;14.67;71.71;99836.44;5025710;28;20497;-49
2021/05/21 00:42:17;;;;;;;0.30;0.20;;;;;;;14.47;71.30;99835.66;5014797;28;20545;-50
2021/05/21 00:44:56;;;;;;;0.30;0.20;;;;;;;14.57;71.80;99828.03;5018638;28;20515;-50
2021/05/21 00:47:23;;;;;;;0.30;0.20;;;;;;;14.44;72.04;99826.94;5032378;28;20450;-50
2021/05/21 00:49:50;;;;;;;0.40;0.30;;;;;;;14.41;71.36;99814.56;5032287;28;20455;-50
2021/05/21 00:52:17;;;;;;;0.30;0.20;;;;;;;14.43;72.15;99817.16;5032495;28;20462;-49
2021/05/21 00:54:45;;;;;;;0.30;0.20;;;;;;;14.46;71.34;99809.00;5031877;28;20980;-50
2021/05/21 00:57:13;;;;;;;0.30;0.20;;;;;;;14.26;70.90;99810.00;5023377;28;20503;-50
2021/05/21 00:59:40;;;;;;;0.40;0.20;;;;;;;14.46;71.70;99806.31;5027838;28;21010;-49
2021/05/21 01:02:07;;;;;;;0.30;0.20;;;;;;;14.50;71.12;99808.75;5031981;28;20894;-50
2021/05/21 01:04:37;;;;;;;0.30;0.20;;;;;;;14.55;70.46;99808.53;5031118;28;20477;-50
2021/05/21 01:07:05;;;;;;;0.30;0.20;;;;;;;14.64;70.14;99796.44;5032277;28;20857;-50
2021/05/21 01:09:32;;;;;;;0.30;0.20;;;;;;;14.47;70.68;99787.53;5032178;28;20452;-50
2021/05/21 01:12:00;;;;;;;0.30;0.20;;;;;;;14.64;69.27;99793.78;5022554;28;20448;-51
2021/05/21 01:14:28;;;;;;;0.30;0.20;;;;;;;14.46;69.42;99784.94;5028172;28;20558;-50
2021/05/21 01:16:55;;;;;;;0.30;0.20;;;;;;;14.55;69.01;99772.91;5032102;28;20452;-50
2021/05/21 01:19:22;;;;;;;0.30;0.20;;;;;;;14.61;68.51;99778.75;5032043;28;20937;-50
2021/05/21 01:21:49;;;;;;;0.30;0.20;;;;;;;14.62;68.84;99769.78;5032065;28;20459;-50
2021/05/21 01:24:16;;;;;;;0.30;0.20;;;;;;;14.46;69.15;99766.22;5031414;28;20475;-49
2021/05/21 01:26:46;;;;;;;0.30;0.20;;;;;;;14.55;69.37;99765.72;5020574;28;20452;-50
2021/05/21 01:29:13;;;;;;;0.30;0.20;;;;;;;14.49;69.76;99761.56;5029407;28;20506;-49
2021/05/21 01:31:43;;;;;;;0.30;0.20;;;;;;;14.53;68.75;99762.28;5031307;28;20832;-50
2021/05/21 01:34:10;;;;;;;0.30;0.20;;;;;;;14.47;68.74;99755.44;5031272;28;20464;-50
2021/05/21 01:36:36;;;;;;;0.30;0.20;;;;;;;14.55;68.52;99759.53;5031420;28;20501;-50
2021/05/21 01:39:11;;;;;;;0.30;0.20;;;;;;;14.46;68.95;99756.38;5031086;28;21006;-50
2021/05/21 01:41:39;;;;;;;0.30;0.20;;;;;;;14.63;68.24;99738.56;5033779;28;20454;-50
2021/05/21 01:44:09;;;;;;;0.30;0.20;;;;;;;14.64;67.52;99743.81;5034845;28;20495;-50
2021/05/21 01:46:37;;;;;;;0.30;0.20;;;;;;;14.65;67.18;99737.50;5035110;28;20455;-49
2021/05/21 01:49:05;;;;;;;0.30;0.20;;;;;;;14.43;68.45;99732.44;5034996;28;20458;-49
2021/05/21 01:51:33;;;;;;;0.30;0.20;;;;;;;14.28;68.98;99738.59;5034769;28;20458;-50
2021/05/21 01:54:16;;;;;;;0.30;0.20;;;;;;;14.26;68.70;99723.59;5035010;28;20633;-50
2021/05/21 01:56:43;;;;;;;0.30;0.20;;;;;;;14.30;68.98;99725.16;5021358;28;20451;-50
2021/05/21 01:59:10;;;;;;;0.30;0.20;;;;;;;14.20;68.79;99719.41;5034898;28;20501;-50
2021/05/21 02:01:37;;;;;;;0.30;0.20;;;;;;;14.05;71.03;99721.09;5034689;28;20451;-50
2021/05/21 02:04:04;;;;;;;0.30;0.20;;;;;;;14.07;69.48;99712.97;5034337;28;20993;-50
2021/05/21 02:06:34;;;;;;;0.30;0.20;;;;;;;14.05;69.52;99714.88;5034850;28;20514;-50
2021/05/21 02:09:00;;;;;;;0.30;0.20;;;;;;;13.93;70.34;99719.03;5034673;28;20454;-50
2021/05/21 02:11:27;;;;;;;0.30;0.20;;;;;;;14.01;70.42;99707.97;5029343;28;21002;-49
2021/05/21 02:13:54;;;;;;;0.30;0.20;;;;;;;13.90;72.55;99706.72;5026360;28;20471;-50
2021/05/21 02:16:20;;;;;;;0.40;0.33;;;;;;;13.64;73.43;99709.84;5034263;28;20448;-50
2021/05/21 02:18:47;;;;;;;0.30;0.20;;;;;;;13.29;75.79;99703.56;5034882;28;20451;-50
2021/05/21 02:21:14;;;;;;;0.30;0.30;;;;;;;13.25;75.57;99694.88;5034380;28;20483;-50
2021/05/21 02:23:41;;;;;;;0.30;0.20;;;;;;;13.02;76.31;99695.09;5034043;28;20530;-49
2021/05/21 02:26:07;;;;;;;0.30;0.20;;;;;;;13.03;76.91;99686.16;5028493;28;20456;-49
2021/05/21 02:28:34;;;;;;;0.30;0.20;;;;;;;13.03;75.74;99686.16;5026742;28;20459;-49
2021/05/21 02:31:00;;;;;;;0.30;0.20;;;;;;;12.94;76.90;99678.59;5032928;28;20451;-50
2021/05/21 02:33:27;;;;;;;0.30;0.20;;;;;;;12.73;77.97;99677.78;5033973;28;20463;-50
2021/05/21 02:35:54;;;;;;;0.80;0.80;;;;;;;12.75;76.16;99668.81;5034231;28;20476;-49
2021/05/21 02:38:21;;;;;;;0.30;0.20;;;;;;;12.78;76.66;99659.78;5034128;28;20455;-50
2021/05/21 02:40:48;;;;;;;0.30;0.20;;;;;;;12.79;76.18;99653.53;5033960;28;20451;-49
2021/05/21 02:43:15;;;;;;;0.30;0.20;;;;;;;12.69;76.55;99661.09;5032480;28;20574;-50
2021/05/21 02:45:41;;;;;;;0.30;0.20;;;;;;;12.94;76.00;99655.44;5032426;28;20952;-50
2021/05/21 02:48:08;;;;;;;0.30;0.20;;;;;;;12.89;75.59;99645.94;5034117;28;20851;-50
2021/05/21 02:50:35;;;;;;;0.30;0.20;;;;;;;12.80;75.43;99643.72;5014380;28;20492;-50
2021/05/21 02:53:02;;;;;;;0.30;0.20;;;;;;;12.67;76.26;99638.09;5026526;28;20466;-49
2021/05/21 02:55:28;;;;;;;0.30;0.20;;;;;;;12.61;75.89;99635.72;5015316;28;20456;-49
2021/05/21 02:57:55;;;;;;;0.33;0.23;;;;;;;12.61;77.60;99635.72;5027157;28;20456;-50
2021/05/21 03:00:21;;;;;;;0.60;0.60;;;;;;;12.53;78.07;99632.56;5013756;28;20516;-49
2021/05/21 03:02:48;;;;;;;0.30;0.20;;;;;;;12.65;76.85;99624.84;5027103;28;20906;-50
2021/05/21 03:05:20;;;;;;;0.30;0.20;;;;;;;12.36;78.91;99628.88;5033319;28;20475;-49
2021/05/21 03:07:50;;;;;;;0.30;0.20;;;;;;;12.39;78.36;99620.75;5033442;28;20443;-49
2021/05/21 03:10:17;;;;;;;0.30;0.20;;;;;;;12.38;78.62;99621.69;5033493;28;20444;-50
2021/05/21 03:12:44;;;;;;;0.30;0.20;;;;;;;12.21;80.38;99626.06;5019684;28;20977;-49
2021/05/21 03:15:11;;;;;;;0.30;0.20;;;;;;;12.14;80.62;99631.66;5031855;28;20489;-49
2021/05/21 03:17:38;;;;;;;0.30;0.20;;;;;;;12.20;80.74;99624.31;5015698;28;20494;-49
2021/05/21 03:20:05;;;;;;;0.30;0.20;;;;;;;12.20;79.79;99618.97;5033188;28;20456;-49
2021/05/21 03:22:32;;;;;;;0.30;0.20;;;;;;;12.25;80.18;99619.66;5032932;28;20497;-49
2021/05/21 03:25:03;;;;;;;0.30;0.20;;;;;;;12.14;80.78;99617.47;5033050;28;20479;-49
2021/05/21 03:27:30;;;;;;;0.30;0.20;;;;;;;12.13;81.07;99613.94;5019741;28;20444;-49
2021/05/21 03:29:58;;;;;;;0.30;0.20;;;;;;;12.12;80.49;99617.56;5033258;28;20463;-49
2021/05/21 03:32:25;;;;;;;0.30;0.20;;;;;;;12.09;81.26;99611.50;5032928;28;20497;-49
2021/05/21 03:34:54;;;;;;;0.30;0.20;;;;;;;12.15;80.38;99612.06;5015486;28;20522;-50
2021/05/21 03:37:20;;;;;;;0.30;0.20;;;;;;;12.09;80.97;99612.38;5015989;28;20802;-50
2021/05/21 03:39:47;;;;;;;0.30;0.20;;;;;;;12.04;81.57;99610.84;5033165;28;20499;-49
2021/05/21 03:42:14;;;;;;;0.30;0.20;;;;;;;12.00;82.36;99606.59;5032714;28;20531;-50
2021/05/21 03:44:42;;;;;;;0.30;0.20;;;;;;;11.92;83.17;99604.25;5033162;28;20583;-49
2021/05/21 03:47:09;;;;;;;0.30;0.20;;;;;;;11.90;83.02;99598.13;5037393;28;20796;-49
2021/05/21 03:49:36;;;;;;;0.30;0.20;;;;;;;11.88;83.13;99607.13;5033087;28;20447;-50
2021/05/21 03:52:03;;;;;;;0.30;0.20;;;;;;;11.92;82.77;99601.59;5015076;28;20458;-50
2021/05/21 03:54:30;;;;;;;0.30;0.20;;;;;;;11.84;83.16;99587.78;5033042;28;20464;-52
2021/05/21 03:56:56;;;;;;;0.30;0.20;;;;;;;11.75;83.24;99596.13;5018035;28;20535;-52
2021/05/21 03:59:23;;;;;;;0.30;0.20;;;;;;;11.76;82.81;99590.75;5032466;28;21013;-52
2021/05/21 04:01:50;;;;;;;0.30;0.30;;;;;;;12.07;80.80;99597.41;5032304;28;20459;-52
2021/05/21 04:04:17;;;;;;;0.30;0.20;;;;;;;12.04;79.30;99593.06;5031826;28;20503;-52
2021/05/21 04:06:44;;;;;;;0.30;0.20;;;;;;;12.11;79.15;99583.84;5012908;28;20540;-51
2021/05/21 04:09:11;;;;;;;0.30;0.20;;;;;;;12.11;78.55;99583.00;5024968;28;20865;-52
2021/05/21 04:11:38;;;;;;;0.30;0.20;;;;;;;12.29;78.44;99581.25;5008050;28;20960;-52
2021/05/21 04:14:06;;;;;;;0.30;0.20;;;;;;;12.39;76.14;99580.75;5025297;28;20486;-52
2021/05/21 04:16:33;;;;;;;0.30;0.20;;;;;;;12.52;76.15;99573.06;5032174;28;20759;-52
2021/05/21 04:19:00;;;;;;;0.40;0.30;;;;;;;12.39;76.01;99566.56;5031745;28;20448;-52
2021/05/21 04:21:32;;;;;;;0.30;0.20;;;;;;;12.58;75.68;99559.41;5031810;28;20482;-52
2021/05/21 04:23:59;;;;;;;0.30;0.20;;;;;;;12.54;75.52;99554.31;5031377;28;21000;-52
2021/05/21 04:26:26;;;;;;;0.30;0.20;;;;;;;12.62;76.24;99558.34;5023908;28;20453;-52
2021/05/21 04:28:53;;;;;;;0.30;0.20;;;;;;;12.72;74.59;99553.41;5026643;28;20456;-52
2021/05/21 04:31:20;;;;;;;0.30;0.20;;;;;;;12.76;74.61;99557.66;5031609;28;20750;-52
2021/05/21 04:33:46;;;;;;;0.30;0.20;;;;;;;12.82;74.36;99553.81;5031419;28;20464;-52
2021/05/21 04:36:13;;;;;;;0.30;0.20;;;;;;;12.91;73.25;99550.72;5031419;28;20509;-52
2021/05/21 04:38:39;;;;;;;0.30;0.20;;;;;;;12.96;73.75;99554.00;5031368;28;20451;-52
2021/05/21 04:41:06;;;;;;;0.30;0.20;;;;;;;13.06;73.15;99544.59;5031657;28;20986;-52
2021/05/21 04:43:34;;;;;;;0.30;0.20;;;;;;;12.99;73.67;99549.34;5031674;28;20500;-51
2021/05/21 04:46:01;;;;;;;0.30;0.20;;;;;;;13.05;73.21;99546.41;5031556;28;20447;-50
2021/05/21 04:48:28;;;;;;;0.30;0.20;;;;;;;13.03;73.58;99542.94;5031817;28;20987;-50
2021/05/21 04:50:57;;;;;;;0.30;0.20;;;;;;;13.07;73.57;99543.66;5032218;28;20447;-50
2021/05/21 04:53:24;;;;;;;0.30;0.20;;;;;;;13.14;73.70;99542.38;5031340;28;20475;-50
2021/05/21 04:55:51;;;;;;;0.30;0.20;;;;;;;13.16;73.47;99539.66;5022086;28;20506;-49
2021/05/21 04:58:19;;;;;;;0.30;0.20;;;;;;;13.19;72.94;99540.41;5027959;28;20452;-50
2021/05/21 05:00:46;;;;;;;0.30;0.20;;;;;;;13.20;72.90;99533.25;5029648;28;20578;-51
2021/05/21 05:03:17;;;;;;;0.30;0.20;;;;;;;13.37;72.69;99519.88;5017984;28;20495;-50
2021/05/21 05:05:45;;;;;;;0.30;0.20;;;;;;;13.38;72.77;99523.41;5031430;28;20448;-51
2021/05/21 05:08:16;;;;;;;0.30;0.20;;;;;;;13.37;72.72;99517.22;5014564;28;20456;-49
2021/05/21 05:10:43;;;;;;;0.30;0.20;;;;;;;13.59;72.09;99522.28;5032483;28;20932;-50
2021/05/21 05:13:10;;;;;;;0.30;0.20;;;;;;;13.47;72.79;99512.25;5018541;28;20444;-50
2021/05/21 05:15:37;;;;;;;0.30;0.20;;;;;;;13.48;72.78;99504.16;5033001;28;21006;-51
2021/05/21 05:18:05;;;;;;;0.30;0.20;;;;;;;13.55;72.26;99510.03;5036613;28;20462;-50
2021/05/21 05:20:34;;;;;;;0.30;0.20;;;;;;;13.59;73.05;99507.13;5036962;28;20452;-49
2021/05/21 05:23:01;;;;;;;0.30;0.20;;;;;;;13.53;72.42;99499.44;5037046;28;20454;-50
2021/05/21 05:25:29;;;;;;;0.30;0.20;;;;;;;13.62;72.70;99498.09;5018739;28;20447;-50
2021/05/21 05:27:56;;;;;;;0.30;0.20;;;;;;;13.72;72.27;99493.97;5022762;28;20447;-50
2021/05/21 05:30:24;;;;;;;0.30;0.20;;;;;;;13.82;72.60;99492.50;5035920;28;20940;-50
2021/05/21 05:32:51;;;;;;;0.40;0.40;;;;;;;14.09;71.05;99486.59;5036340;28;20848;-50
2021/05/21 05:35:17;;;;;;;0.30;0.20;;;;;;;14.18;71.02;99486.09;5035975;28;20451;-51
2021/05/21 05:37:45;;;;;;;0.30;0.20;;;;;;;14.30;70.84;99490.75;5035922;28;20505;-50
2021/05/21 05:40:11;;;;;;;0.30;0.20;;;;;;;14.48;70.23;99479.03;5035694;28;20447;-50
2021/05/21 05:42:39;;;;;;;0.30;0.20;;;;;;;14.53;69.92;99476.09;5035646;28;20452;-50
2021/05/21 05:45:07;;;;;;;5.50;0.83;;;;;;;14.55;69.72;99479.56;5035129;28;20495;-50
2021/05/21 05:47:34;;;;;;;0.30;0.20;;;;;;;14.44;70.40;99469.47;5035978;28;20466;-50
2021/05/21 05:50:00;;;;;;;0.30;0.20;;;;;;;14.58;69.80;99459.78;5035981;28;20521;-50
2021/05/21 05:52:27;;;;;;;0.30;0.20;;;;;;;14.88;68.20;99463.31;5035758;28;20505;-50
2021/05/21 05:54:55;;;;;;;0.30;0.20;;;;;;;14.72;69.12;99473.22;5034373;28;20467;-50
2021/05/21 05:57:21;;;;;;;0.30;0.20;;;;;;;14.79;69.02;99458.50;5022002;28;20460;-50
2021/05/21 05:59:48;;;;;;;0.30;0.20;;;;;;;15.10;67.11;99453.06;5035239;28;20447;-51
2021/05/21 06:02:15;;;;;;;0.30;0.20;;;;;;;15.20;67.13;99456.00;5035540;28;20468;-50
2021/05/21 06:04:42;;;;;;;0.30;0.20;;;;;;;15.19;68.48;99461.47;5033878;28;20549;-51
2021/05/21 06:07:08;;;;;;;0.33;0.27;;;;;;;14.99;67.64;99460.88;5035108;28;20459;-50
2021/05/21 06:09:35;;;;;;;0.30;0.20;;;;;;;14.94;67.79;99460.28;5035073;28;20517;-49
2021/05/21 06:12:01;;;;;;;0.30;0.20;;;;;;;15.22;67.66;99458.63;5033895;28;20447;-50
2021/05/21 06:14:29;;;;;;;0.30;0.20;;;;;;;15.18;68.12;99459.75;5017499;28;20471;-50
2021/05/21 06:16:56;;;;;;;0.30;0.20;;;;;;;15.32;68.49;99452.59;5035032;28;20478;-50
2021/05/21 06:19:22;;;;;;;0.40;0.20;;;;;;;15.10;68.49;99455.75;5035568;28;20448;-50
2021/05/21 06:21:49;;;;;;;0.30;0.20;;;;;;;15.32;67.87;99457.09;5017374;28;20457;-50
2021/05/21 06:24:16;;;;;;;0.30;0.20;;;;;;;15.31;67.50;99448.19;5034743;28;20487;-49
2021/05/21 06:26:54;;;;;;;0.30;0.20;;;;;;;15.18;69.19;99443.69;5006678;28;20826;-49
2021/05/21 06:29:21;;;;;;;0.30;0.20;;;;;;;15.30;68.54;99450.97;5033644;28;21006;-50
2021/05/21 06:31:47;;;;;;;0.30;0.20;;;;;;;15.37;69.07;99453.19;5035094;28;20505;-50
2021/05/21 06:34:14;;;;;;;0.30;0.20;;;;;;;15.48;68.39;99455.19;5033856;28;20468;-50
2021/05/21 06:36:41;;;;;;;0.30;0.20;;;;;;;15.52;67.20;99448.69;5017442;28;20451;-50
2021/05/21 06:39:07;;;;;;;0.30;0.20;;;;;;;15.45;67.28;99441.13;5034992;28;20987;-51
2021/05/21 06:41:34;;;;;;;0.30;0.20;;;;;;;15.23;67.96;99439.78;5034703;28;20451;-49
2021/05/21 06:44:01;;;;;;;0.30;0.20;;;;;;;15.39;67.41;99442.38;5034377;28;20498;-49
2021/05/21 06:46:27;;;;;;;0.30;0.20;;;;;;;15.32;68.59;99444.56;5034465;28;20844;-50
2021/05/21 06:48:55;;;;;;;0.30;0.20;;;;;;;15.24;68.27;99443.31;5034625;28;20822;-49
2021/05/21 06:51:22;;;;;;;0.30;0.20;;;;;;;15.61;68.18;99445.44;5017024;28;20456;-50
2021/05/21 06:53:49;;;;;;;0.30;0.20;;;;;;;15.39;67.89;99434.34;5032984;28;20464;-50
2021/05/21 06:56:16;;;;;;;0.30;0.20;;;;;;;15.55;67.68;99436.91;5021689;28;20460;-50
2021/05/21 06:58:43;;;;;;;0.30;0.20;;;;;;;15.47;67.79;99436.53;5033574;28;20456;-49
2021/05/21 07:01:10;;;;;;;0.30;0.20;;;;;;;15.50;67.57;99431.00;5034521;28;20451;-50
2021/05/21 07:03:36;;;;;;;0.30;0.20;;;;;;;15.82;67.70;99429.84;5016620;28;20498;-51
2021/05/21 07:06:03;;;;;;;0.30;0.20;;;;;;;15.64;67.72;99434.56;5034173;28;20444;-50
2021/05/21 07:08:29;;;;;;;0.30;0.20;;;;;;;15.81;66.91;99430.81;5034134;28;20447;-50
2021/05/21 07:10:58;;;;;;;0.30;0.20;;;;;;;15.87;67.66;99449.16;5033762;28;20459;-50
2021/05/21 07:13:28;;;;;;;0.30;0.20;;;;;;;15.51;68.26;99432.72;5021911;28;20467;-49
2021/05/21 07:15:55;;;;;;;0.30;0.20;;;;;;;15.63;67.42;99427.50;5034671;28;20456;-49
2021/05/21 07:18:24;;;;;;;0.30;0.20;;;;;;;15.76;68.16;99424.00;5034641;28;20817;-50
2021/05/21 07:20:51;;;;;;;0.30;0.20;;;;;;;15.62;67.07;99416.84;5033760;28;20456;-50
2021/05/21 07:23:19;;;;;;;0.30;0.20;;;;;;;15.83;67.38;99423.53;5034363;28;20510;-50
2021/05/21 07:25:45;;;;;;;0.30;0.20;;;;;;;15.88;66.49;99426.75;5031461;28;20487;-49
2021/05/21 07:28:12;;;;;;;0.30;0.20;;;;;;;15.84;66.74;99432.44;5022097;28;20448;-50
2021/05/21 07:30:39;;;;;;;0.30;0.20;;;;;;;15.89;67.21;99425.81;5033812;28;20518;-50
2021/05/21 07:33:06;;;;;;;0.30;0.20;;;;;;;16.15;67.20;99431.31;5033686;28;20451;-50
2021/05/21 07:35:32;;;;;;;0.30;0.20;;;;;;;16.19;65.90;99420.28;5034448;28;20455;-50
2021/05/21 07:37:59;;;;;;;0.40;0.40;;;;;;;16.02;66.64;99422.34;5033096;28;20521;-49
2021/05/21 07:40:26;;;;;;;0.30;0.20;;;;;;;16.05;66.38;99420.34;5033583;28;20469;-49
2021/05/21 07:42:52;;;;;;;0.40;0.20;;;;;;;16.16;66.71;99412.44;5033530;28;20456;-49
2021/05/21 07:45:20;;;;;;;0.30;0.20;;;;;;;16.14;65.80;99417.03;5033145;28;20491;-50
2021/05/21 07:47:46;;;;;;;0.30;0.20;;;;;;;15.98;66.84;99416.31;5033271;28;20968;-50
2021/05/21 07:50:14;;;;;;;0.30;0.20;;;;;;;16.03;67.00;99432.94;5033468;28;20456;-49
2021/05/21 07:52:41;;;;;;;0.33;0.20;;;;;;;16.04;65.71;99449.94;5033473;28;20452;-49
2021/05/21 07:55:08;;;;;;;0.30;0.20;;;;;;;15.83;66.06;99444.13;5029155;28;21056;-50
2021/05/21 07:57:36;;;;;;;0.30;0.20;;;;;;;15.92;66.66;99451.56;5024107;28;20448;-49
2021/05/21 08:00:05;;;;;;;0.40;0.20;;;;;;;15.88;65.36;99453.56;5033176;28;20470;-50
2021/05/21 08:02:32;;;;;;;0.33;0.20;;;;;;;15.99;66.64;99451.06;5033066;28;20455;-50
2021/05/21 08:04:58;;;;;;;0.30;0.20;;;;;;;15.92;66.80;99463.16;5033222;28;20565;-50
2021/05/21 08:07:25;;;;;;;0.37;0.27;;;;;;;16.02;67.56;99462.53;5032959;28;20447;-50
2021/05/21 08:09:54;;;;;;;0.30;0.20;;;;;;;15.96;67.24;99458.44;5032870;28;20452;-50
2021/05/21 08:12:22;;;;;;;0.30;0.20;;;;;;;15.85;66.26;99440.38;5003344;28;20463;-50
2021/05/21 08:14:49;;;;;;;0.30;0.20;;;;;;;15.81;66.06;99446.03;5031796;28;20464;-50
2021/05/21 08:17:16;;;;;;;0.30;0.20;;;;;;;16.07;66.15;99439.00;5032734;28;20867;-50
2021/05/21 08:19:43;;;;;;;0.40;0.20;;;;;;;16.22;66.96;99430.81;5032878;28;20447;-50
2021/05/21 08:22:10;;;;;;;0.30;0.20;;;;;;;16.05;66.19;99430.19;5032607;28;20458;-51
2021/05/21 08:24:36;;;;;;;0.30;0.20;;;;;;;16.12;65.36;99434.19;5032475;28;20538;-50
2021/05/21 08:27:03;;;;;;;0.30;0.20;;;;;;;16.16;66.05;99439.25;5020039;28;20452;-50
2021/05/21 08:29:30;;;;;;;0.30;0.20;;;;;;;16.39;65.01;99442.25;5031249;28;20551;-50
2021/05/21 08:32:01;;;;;;;0.30;0.20;;;;;;;16.41;65.37;99456.41;5032895;28;20451;-51
2021/05/21 08:34:28;;;;;;;0.30;0.20;;;;;;;16.44;64.42;99469.63;5032572;28;20504;-49
2021/05/21 08:36:55;;;;;;;0.30;0.20;;;;;;;16.65;64.59;99476.25;5032528;28;20967;-50
2021/05/21 08:39:22;;;;;;;0.30;0.20;;;;;;;16.36;65.44;99480.00;5032681;28;20467;-50
2021/05/21 08:41:53;;;;;;;0.30;0.20;;;;;;;16.17;65.00;99481.22;5032439;28;20487;-50
2021/05/21 08:44:21;;;;;;;0.37;0.20;;;;;;;16.25;66.04;99488.75;5032013;28;20495;-50
2021/05/21 08:46:48;;;;;;;0.40;0.20;;;;;;;16.13;64.11;99486.84;5032396;28;20451;-50
2021/05/21 08:49:16;;;;;;;0.30;0.20;;;;;;;16.10;65.29;99482.56;5032510;28;20447;-50
2021/05/21 08:51:43;;;;;;;0.30;0.20;;;;;;;16.06;64.71;99473.00;5032418;28;20472;-50
2021/05/21 08:54:24;;;;;;;0.30;0.20;;;;;;;16.45;63.97;99477.59;5032173;28;20469;-50
2021/05/21 08:56:51;;;;;;;0.30;0.20;;;;;;;16.25;62.80;99486.06;5018700;28;20501;-51
2021/05/21 08:59:18;;;;;;;0.30;0.20;;;;;;;16.21;61.28;99480.03;5032104;28;20930;-50
2021/05/21 09:01:57;;;;;;;0.30;0.20;;;;;;;16.55;61.00;99475.13;5030976;28;20856;-50
2021/05/21 09:04:44;;;;;;;0.30;0.20;;;;;;;16.88;60.63;99477.44;5032733;28;20910;-51
2021/05/21 09:07:22;;;;;;;1.70;1.50;;;;;;;16.63;60.43;99480.88;5032076;28;20455;-51
2021/05/21 09:09:49;;;;;;;0.30;0.20;;;;;;;16.55;61.29;99481.38;5032775;28;20447;-53
2021/05/21 09:12:18;;;;;;;0.50;0.50;;;;;;;16.58;61.34;99470.47;5020969;28;20452;-51
2021/05/21 09:15:08;;;;;;;0.30;0.20;;;;;;;16.54;62.12;99474.28;5030856;28;20919;-51
2021/05/21 09:17:35;;;;;;;0.30;0.20;;;;;;;16.56;62.91;99464.31;5031808;28;20448;-50
2021/05/21 09:20:04;;;;;;;0.40;0.20;;;;;;;16.21;63.06;99431.78;5032273;28;20452;-48
2021/05/21 09:23:11;;;;;;;0.30;0.20;;;;;;;16.81;61.83;99463.56;5031998;28;20447;-48
2021/05/21 09:25:47;;;;;;;2.50;2.20;;;;;;;17.02;61.32;99463.09;5013971;28;20483;-51
2021/05/21 09:28:33;;;;;;;0.30;0.20;;;;;;;17.03;61.27;99456.75;5021241;28;20458;-51
2021/05/21 09:31:08;;;;;;;0.40;0.20;;;;;;;17.33;58.41;99480.63;5032093;28;20505;-51
2021/05/21 09:33:36;;;;;;;0.30;0.20;;;;;;;17.52;59.36;99474.81;5032036;28;20475;-51
2021/05/21 09:36:04;;;;;;;0.40;0.20;;;;;;;17.36;59.20;99477.72;5031883;28;20870;-51
2021/05/21 09:38:32;;;;;;;0.40;0.20;;;;;;;17.84;57.73;99473.44;5031752;28;20467;-51
2021/05/21 09:41:07;;;;;;;0.40;0.20;;;;;;;17.95;58.16;99473.50;5033404;28;20458;-51
2021/05/21 09:43:35;;;;;;;0.40;0.20;;;;;;;17.90;58.44;99469.44;5031716;28;20557;-51
2021/05/21 09:46:11;;;;;;;0.40;0.20;;;;;;;17.93;58.35;99475.44;5031764;28;20498;-51
2021/05/21 09:48:38;;;;;;;0.40;0.20;;;;;;;17.95;57.17;99468.13;5031690;28;20451;-51
2021/05/21 09:51:09;;;;;;;0.40;0.20;;;;;;;17.64;57.61;99474.81;5032035;28;20490;-51
2021/05/21 09:53:35;;;;;;;0.40;0.20;;;;;;;17.64;57.99;99473.94;5031785;28;20522;-51
2021/05/21 09:56:16;;;;;;;1.00;0.93;;;;;;;17.63;56.20;99461.50;5004263;28;20456;-51
2021/05/21 09:58:47;;;;;;;0.40;0.40;;;;;;;17.58;56.45;99469.88;5031519;28;20455;-51
2021/05/21 10:01:24;;;;;;;10.23;2.43;;;;;;;17.46;56.48;99468.91;5031958;28;20546;-51
2021/05/21 10:03:55;;;;;;;0.40;0.20;;;;;;;17.48;56.49;99466.13;5015450;28;20535;-51
2021/05/21 10:06:24;;;;;;;0.40;0.20;;;;;;;17.69;56.10;99458.41;5031953;28;20903;-51
2021/05/21 10:08:55;;;;;;;0.83;0.83;;;;;;;17.66;56.50;99466.63;5035207;28;20463;-51
2021/05/21 10:11:22;;;;;;;0.40;0.20;;;;;;;18.01;56.20;99465.00;5031051;28;20455;-51
2021/05/21 10:13:49;;;;;;;0.40;0.20;;;;;;;18.09;57.22;99458.19;5025985;28;20533;-51
2021/05/21 10:16:18;;;;;;;0.40;0.20;;;;;;;18.21;56.71;99466.25;5035215;28;20447;-51
2021/05/21 10:18:46;;;;;;;0.40;0.20;;;;;;;18.41;56.85;99450.47;5035173;28;20448;-51
2021/05/21 10:21:14;;;;;;;0.40;0.20;;;;;;;18.13;57.17;99463.28;5035341;28;20452;-51
2021/05/21 10:23:53;;;;;;;0.50;0.50;;;;;;;18.59;57.33;99457.16;5034904;28;21012;-51
2021/05/21 10:26:28;;;;;;;0.40;0.20;;;;;;;18.00;57.43;99465.13;5027339;28;20647;-51
2021/05/21 10:28:58;;;;;;;0.40;0.20;;;;;;;18.05;57.71;99469.19;5030533;28;20470;-51
2021/05/21 10:31:27;;;;;;;0.47;0.30;;;;;;;18.15;58.03;99466.69;5034988;28;20444;-50
2021/05/21 10:34:19;;;;;;;0.80;0.80;;;;;;;18.16;58.22;99462.19;5034477;28;20475;-51
2021/05/21 10:36:46;;;;;;;0.50;0.50;;;;;;;18.04;57.00;99461.25;5034738;28;20459;-51
2021/05/21 10:39:21;;;;;;;0.40;0.20;;;;;;;18.12;57.67;99463.38;5017279;28;20452;-51
2021/05/21 10:41:58;;;;;;;0.40;0.20;;;;;;;18.17;57.65;99466.59;5034616;28;20447;-50
2021/05/21 10:44:38;;;;;;;0.40;0.20;;;;;;;18.23;57.73;99480.47;5034843;28;20490;-53
2021/05/21 10:47:35;;;;;;;0.30;0.20;;;;;;;18.09;56.25;99475.19;5034260;28;20443;-53
2021/05/21 10:50:02;;;;;;;1.17;0.73;;;;;;;18.35;54.73;99459.84;5033028;28;20522;-53
2021/05/21 10:53:05;;;;;;;0.40;0.20;;;;;;;18.65;52.27;99467.53;5034311;28;20459;-52
2021/05/21 10:55:53;;;;;;;0.40;0.20;;;;;;;18.38;52.72;99442.63;5026916;28;20455;-52
2021/05/21 10:58:29;;;;;;;0.40;0.20;;;;;;;18.35;51.41;99454.47;5031565;28;20933;-53
2021/05/21 11:01:12;;;;;;;0.40;0.20;;;;;;;18.51;51.25;99456.91;5033956;28;20455;-53
2021/05/21 11:03:57;;;;;;;0.40;0.30;;;;;;;18.22;50.78;99449.13;5014267;28;20446;-53
2021/05/21 11:06:26;;;;;;;0.40;0.30;;;;;;;18.08;52.21;99448.41;5031079;28;20492;-53
2021/05/21 11:09:04;;;;;;;0.40;0.20;;;;;;;18.07;52.75;99442.19;5034208;28;20448;-53
2021/05/21 11:12:00;;;;;;;0.40;0.20;;;;;;;17.96;52.88;99450.19;5028636;28;21019;-53
2021/05/21 11:14:30;;;;;;;0.40;0.20;;;;;;;17.88;53.28;99452.56;5028970;28;20479;-53
2021/05/21 11:16:59;;;;;;;0.40;0.20;;;;;;;17.98;52.64;99443.72;5034140;28;20482;-50
2021/05/21 11:19:27;;;;;;;0.40;0.20;;;;;;;18.01;52.85;99438.13;5033925;28;20998;-50
2021/05/21 11:22:17;;;;;;;0.40;0.20;;;;;;;18.15;52.28;99449.69;5033900;28;20452;-50
2021/05/21 11:24:47;;;;;;;0.40;0.20;;;;;;;18.31;51.94;99451.16;5028402;28;20483;-52
2021/05/21 11:27:14;;;;;;;0.40;0.20;;;;;;;18.34;52.30;99433.91;5020487;28;20823;-50
2021/05/21 11:29:52;;;;;;;22.93;1.37;;;;;;;18.45;52.20;99441.19;5033639;28;20538;-53
2021/05/21 11:32:22;;;;;;;0.40;0.20;;;;;;;18.57;55.21;99459.97;5033680;28;20451;-53
2021/05/21 11:34:49;;;;;;;0.40;0.20;;;;;;;18.30;54.13;99462.88;5033869;28;20538;-53
2021/05/21 11:37:23;;;;;;;0.60;0.60;;;;;;;18.13;54.24;99451.66;5035383;28;20902;-52
2021/05/21 11:39:53;;;;;;;0.40;0.20;;;;;;;18.19;54.93;99443.97;5033854;28;21042;-53
2021/05/21 11:42:25;;;;;;;0.40;0.20;;;;;;;18.18;52.53;99446.78;5034233;28;20785;-53